Time;durP1;ratioP1;P1;durP2;ratioP2;P2;SDS_P1;SDS_P2;PMS_P1;PMS_P2;Temp;Humidity;BMP_temperature;BMP_pressure;BME280_temperature;BME280_humidity;BME280_pressure;Samples;Min_cycle;Max_cycle;Signal;HPM_P1;HPM_P2
2022/05/16 00:00:25;;;;;;;9.90;6.10;;;;;;;13.53;71.56;101355.55;105155;1273;62534;-77
2022/05/16 00:03:07;;;;;;;11.60;6.40;;;;;;;13.52;69.46;101360.16;105132;1273;73609;-77
2022/05/16 00:05:37;;;;;;;11.70;6.80;;;;;;;13.41;69.42;101360.98;104983;1273;70988;-74
2022/05/16 00:08:07;;;;;;;12.50;6.50;;;;;;;13.34;68.93;101360.62;105027;1273;69772;-75
2022/05/16 00:10:36;;;;;;;10.20;5.80;;;;;;;13.28;70.65;101359.33;105174;1273;72286;-74
2022/05/16 00:13:05;;;;;;;10.30;6.40;;;;;;;13.30;72.47;101359.55;105013;1273;63120;-75
2022/05/16 00:15:34;;;;;;;10.30;6.30;;;;;;;13.30;72.62;101357.27;105175;1273;60928;-75
2022/05/16 00:18:05;;;;;;;12.00;6.00;;;;;;;13.31;72.41;101357.15;105134;1273;72102;-75
2022/05/16 00:20:34;;;;;;;8.30;5.90;;;;;;;13.27;72.47;101358.52;105121;1273;72432;-79
2022/05/16 00:23:03;;;;;;;8.80;5.50;;;;;;;13.26;72.81;101360.84;105144;1273;69301;-81
2022/05/16 00:25:31;;;;;;;12.00;5.60;;;;;;;13.23;72.68;101365.42;105123;1273;73230;-79
2022/05/16 00:28:00;;;;;;;10.70;6.30;;;;;;;13.21;72.99;101365.60;105109;1273;61359;-78
2022/05/16 00:30:29;;;;;;;14.50;7.10;;;;;;;13.20;73.29;101364.25;105151;1273;60704;-79
2022/05/16 00:32:59;;;;;;;10.00;7.20;;;;;;;13.18;72.85;101366.01;105012;1273;71775;-78
2022/05/16 00:35:27;;;;;;;12.30;7.90;;;;;;;13.12;72.74;101365.52;105150;1273;72424;-78
2022/05/16 00:37:56;;;;;;;12.10;7.50;;;;;;;13.05;73.48;101362.35;105192;1273;70367;-79
2022/05/16 00:40:25;;;;;;;13.50;7.30;;;;;;;12.97;74.05;101364.00;105158;1273;72372;-77
2022/05/16 00:43:07;;;;;;;10.90;6.40;;;;;;;12.89;74.93;101361.27;105146;1273;64437;-77
2022/05/16 00:45:37;;;;;;;8.90;6.70;;;;;;;12.77;75.47;101359.98;105245;1276;61799;-78
2022/05/16 00:48:07;;;;;;;9.90;6.00;;;;;;;12.69;75.91;101364.04;105081;1273;73142;-78
2022/05/16 00:50:39;;;;;;;10.00;6.90;;;;;;;12.60;76.28;101371.56;105070;1273;72133;-77
2022/05/16 00:53:09;;;;;;;13.60;6.70;;;;;;;12.54;76.19;101376.46;105323;1273;70399;-77
2022/05/16 00:55:38;;;;;;;9.50;6.00;;;;;;;12.48;75.20;101378.65;105069;1274;72116;-77
2022/05/16 00:58:12;;;;;;;8.90;5.90;;;;;;;12.38;75.31;101374.47;105278;1273;61807;-74
2022/05/16 01:00:44;;;;;;;12.30;6.40;;;;;;;12.27;75.82;101375.55;105313;1273;59059;-75
2022/05/16 01:06:07;;;;;;;9.90;5.90;;;;;;;12.00;78.07;101365.52;105055;1273;72857;-73
2022/05/16 01:08:43;;;;;;;11.70;5.80;;;;;;;11.98;78.39;101368.99;105307;1273;70698;-76
2022/05/16 01:11:14;;;;;;;8.10;6.10;;;;;;;11.95;77.43;101369.89;105241;1273;74647;-74
2022/05/16 01:13:43;;;;;;;8.80;6.30;;;;;;;11.87;77.87;101370.25;105312;1273;62016;-76
2022/05/16 01:16:12;;;;;;;10.00;6.80;;;;;;;11.80;78.56;101374.17;105280;1273;58860;-76
2022/05/16 01:18:41;;;;;;;9.00;6.30;;;;;;;11.76;79.04;101370.42;105280;1273;73790;-79
2022/05/16 01:21:39;;;;;;;13.80;6.80;;;;;;;11.73;78.70;101372.05;105320;1273;71762;-77
2022/05/16 01:24:16;;;;;;;9.40;6.30;;;;;;;11.68;78.29;101368.75;105323;1273;70641;-76
2022/05/16 01:26:45;;;;;;;12.20;5.70;;;;;;;11.59;77.59;101367.60;105285;1273;72936;-77
2022/05/16 01:29:14;;;;;;;9.20;5.80;;;;;;;11.50;78.57;101367.48;105283;1273;60788;-77
2022/05/16 01:31:43;;;;;;;8.90;6.10;;;;;;;11.38;79.89;101365.95;105314;1273;60641;-81
2022/05/16 01:34:13;;;;;;;10.60;6.80;;;;;;;11.30;80.23;101364.59;105171;1273;75210;-82
2022/05/16 01:36:42;;;;;;;9.20;6.00;;;;;;;11.28;80.14;101365.05;105517;1273;72730;-81
2022/05/16 01:39:10;;;;;;;10.70;6.10;;;;;;;11.30;80.35;101360.23;105468;1273;70845;-75
2022/05/16 01:41:39;;;;;;;11.30;6.40;;;;;;;11.30;80.16;101363.55;105231;1273;72493;-73
2022/05/16 01:44:08;;;;;;;9.80;6.30;;;;;;;11.32;80.17;101360.29;105049;1273;60632;-74
2022/05/16 01:46:40;;;;;;;15.20;6.30;;;;;;;11.31;79.63;101360.30;105220;1273;59972;-73
2022/05/16 01:49:11;;;;;;;9.10;6.20;;;;;;;11.27;78.50;101364.27;105161;1273;73628;-73
2022/05/16 01:51:40;;;;;;;11.40;5.90;;;;;;;11.14;78.36;101366.85;105003;1273;72945;-73
2022/05/16 01:54:10;;;;;;;9.70;6.00;;;;;;;11.03;79.97;101367.19;105147;1273;69303;-72
2022/05/16 01:56:40;;;;;;;11.40;6.10;;;;;;;10.98;80.18;101366.82;105159;1274;74056;-73
2022/05/16 01:59:09;;;;;;;8.80;5.80;;;;;;;10.94;80.42;101366.20;105348;1273;63707;-74
2022/05/16 02:01:38;;;;;;;9.70;6.30;;;;;;;10.91;80.70;101364.52;105361;1273;60444;-73
2022/05/16 02:04:06;;;;;;;9.70;6.20;;;;;;;10.91;80.58;101363.96;105293;1274;73461;-74
2022/05/16 02:06:36;;;;;;;8.50;6.00;;;;;;;10.88;80.83;101364.45;105297;1273;70519;-75
2022/05/16 02:09:05;;;;;;;10.90;6.40;;;;;;;10.88;80.35;101370.58;105314;1273;68068;-75
2022/05/16 02:11:34;;;;;;;9.30;6.10;;;;;;;10.83;78.78;101372.50;105359;1273;71143;-76
2022/05/16 02:14:03;;;;;;;9.60;5.90;;;;;;;10.73;80.68;101372.55;105331;1273;63206;-78
2022/05/16 02:16:31;;;;;;;10.20;7.10;;;;;;;10.68;80.85;101375.02;105114;1273;62146;-78
2022/05/16 02:19:00;;;;;;;12.20;6.70;;;;;;;10.62;80.78;101375.19;105347;1273;75310;-78
2022/05/16 02:27:03;;;;;;;12.20;6.40;;;;;;;10.65;80.94;101379.70;105163;1273;73417;-77
2022/05/16 02:29:34;;;;;;;9.60;6.20;;;;;;;10.60;80.93;101379.48;104940;1276;60919;-76
2022/05/16 02:32:05;;;;;;;9.40;6.80;;;;;;;10.55;81.03;101378.89;105218;1273;61443;-77
2022/05/16 02:34:34;;;;;;;11.40;6.50;;;;;;;10.58;81.02;101378.01;105152;1276;74211;-77
2022/05/16 02:37:05;;;;;;;12.40;6.20;;;;;;;10.62;80.79;101377.95;105515;1273;72939;-81
2022/05/16 02:39:34;;;;;;;10.60;6.50;;;;;;;10.64;80.54;101378.01;105384;1273;69581;-79
2022/05/16 02:42:04;;;;;;;8.10;6.40;;;;;;;10.64;80.96;101379.39;105228;1273;71974;-77
2022/05/16 02:44:33;;;;;;;9.80;6.50;;;;;;;10.63;79.94;101385.40;105030;1273;64171;-76
2022/05/16 02:47:02;;;;;;;10.30;6.60;;;;;;;10.55;79.44;101381.15;105282;1273;60976;-78
2022/05/16 02:49:33;;;;;;;9.30;6.30;;;;;;;10.47;80.13;101383.58;105052;1276;72532;-76
2022/05/16 02:52:02;;;;;;;11.20;6.30;;;;;;;10.42;81.15;101381.84;105202;1273;71907;-77
2022/05/16 02:54:30;;;;;;;9.70;5.80;;;;;;;10.41;81.01;101384.50;104984;1273;70361;-76
2022/05/16 02:56:59;;;;;;;11.80;6.90;;;;;;;10.41;80.89;101385.69;105094;1273;71870;-77
2022/05/16 02:59:32;;;;;;;10.60;6.60;;;;;;;10.40;80.48;101385.05;104911;1276;61491;-78
2022/05/16 03:02:04;;;;;;;10.10;6.00;;;;;;;10.35;80.69;101385.17;105188;1273;60577;-75
2022/05/16 03:04:35;;;;;;;11.50;6.60;;;;;;;10.31;80.60;101383.53;105083;1274;74184;-76
2022/05/16 03:07:06;;;;;;;7.30;6.10;;;;;;;10.29;80.79;101384.52;104973;1276;73168;-75
2022/05/16 03:09:34;;;;;;;10.30;6.40;;;;;;;10.24;80.48;101386.87;105151;1276;68767;-75
2022/05/16 03:12:04;;;;;;;9.20;6.00;;;;;;;10.20;80.30;101386.95;105249;1276;72172;-76
2022/05/16 03:14:35;;;;;;;7.90;5.90;;;;;;;10.16;80.29;101387.73;105182;1275;60712;-76
2022/05/16 03:17:04;;;;;;;10.10;6.20;;;;;;;10.12;80.01;101390.24;104962;1276;61696;-77
2022/05/16 03:19:35;;;;;;;11.50;6.20;;;;;;;10.08;80.48;101393.76;105162;1276;72800;-76
2022/05/16 03:22:05;;;;;;;11.20;6.20;;;;;;;10.08;81.40;101397.58;105387;1276;69908;-76
2022/05/16 03:24:36;;;;;;;9.20;5.90;;;;;;;10.14;81.46;101395.85;105204;1274;68941;-87
2022/05/16 03:27:05;;;;;;;12.40;6.40;;;;;;;10.18;81.24;101397.16;105527;1274;73361;-86
2022/05/16 03:29:34;;;;;;;12.80;7.00;;;;;;;10.26;81.57;101397.77;105435;1273;62723;-85
2022/05/16 03:32:03;;;;;;;9.30;5.90;;;;;;;10.35;81.68;101397.38;105338;1273;61808;-83
2022/05/16 03:34:32;;;;;;;49.40;27.70;;;;;;;10.44;81.42;101403.64;105618;1272;72359;-83
2022/05/16 03:37:01;;;;;;;10.60;6.90;;;;;;;10.52;81.22;101402.98;105636;1273;71563;-82
2022/05/16 03:42:17;;;;;;;10.10;5.80;;;;;;;10.74;80.23;101409.60;105185;1273;74603;-76
2022/05/16 03:44:46;;;;;;;13.30;6.40;;;;;;;10.86;80.09;101410.46;105522;1273;62228;-84
2022/05/16 03:47:14;;;;;;;11.20;6.00;;;;;;;10.97;79.65;101410.25;105463;1274;61928;-83
2022/05/16 03:49:43;;;;;;;11.80;7.30;;;;;;;11.07;79.61;101410.18;105157;1276;71651;-81
2022/05/16 03:52:14;;;;;;;12.10;7.00;;;;;;;11.17;79.24;101410.08;105206;1273;72398;-80
2022/05/16 03:54:43;;;;;;;12.80;6.80;;;;;;;11.26;78.39;101409.49;105193;1273;68880;-82
2022/05/16 03:57:12;;;;;;;13.40;6.80;;;;;;;11.35;78.16;101410.11;105279;1273;73275;-76
2022/05/16 03:59:40;;;;;;;9.50;6.20;;;;;;;11.45;77.70;101411.24;105357;1274;63773;-86
2022/05/16 04:02:09;;;;;;;9.60;6.20;;;;;;;11.56;77.29;101407.88;105533;1276;59580;-81
2022/05/16 04:04:38;;;;;;;11.60;6.30;;;;;;;11.68;76.66;101412.86;105505;1273;71927;-80
2022/05/16 04:07:06;;;;;;;12.70;6.00;;;;;;;11.78;76.16;101411.19;105481;1273;72830;-80
2022/05/16 04:09:35;;;;;;;17.30;7.90;;;;;;;11.89;75.24;101413.73;105389;1276;69478;-84
2022/05/16 04:12:05;;;;;;;12.10;6.40;;;;;;;12.02;74.93;101418.64;105751;1274;70285;-85
2022/05/16 04:14:35;;;;;;;13.40;6.30;;;;;;;12.12;73.86;101415.91;105747;1273;62401;-83
2022/05/16 04:17:04;;;;;;;12.00;5.90;;;;;;;12.22;73.21;101413.61;106113;1273;61298;-84
2022/05/16 04:19:33;;;;;;;11.90;6.50;;;;;;;12.35;72.66;101415.19;105589;1273;73436;-78
2022/05/16 04:22:02;;;;;;;15.90;7.30;;;;;;;12.46;73.09;101420.35;105775;1273;72171;-88
2022/05/16 04:24:31;;;;;;;15.60;6.40;;;;;;;12.56;72.50;101422.45;105970;1273;69690;-87
2022/05/16 04:27:01;;;;;;;17.20;7.30;;;;;;;12.60;71.94;101425.36;105840;1273;74107;-86
2022/05/16 04:29:29;;;;;;;12.60;5.90;;;;;;;12.63;71.72;101431.77;105968;1273;63427;-85
2022/05/16 04:31:58;;;;;;;14.20;7.00;;;;;;;12.65;71.48;101434.79;106162;1272;59582;-86
2022/05/16 04:34:27;;;;;;;13.50;6.70;;;;;;;12.67;71.60;101434.07;106264;1273;72959;-80
2022/05/16 04:36:55;;;;;;;11.90;6.40;;;;;;;12.76;70.74;101437.66;106262;1273;73011;-86
2022/05/16 04:39:24;;;;;;;12.80;6.10;;;;;;;12.82;70.07;101438.17;106163;1273;68630;-85
2022/05/16 09:34:43;;;;;;;4.60;1.50;;;;;;;21.99;32.98;101365.48;105388;1282;73091;-76
2022/05/16 09:37:12;;;;;;;5.80;1.80;;;;;;;22.04;32.70;101362.86;105136;1282;71967;-78
2022/05/16 09:39:52;;;;;;;4.60;1.60;;;;;;;22.17;32.90;101367.27;104994;1282;71179;-80
2022/05/16 09:42:39;;;;;;;3.60;1.50;;;;;;;22.20;32.44;101350.37;105046;1282;63896;-79
2022/05/16 09:45:28;;;;;;;8.00;3.30;;;;;;;22.26;32.67;101353.66;105017;1283;60719;-80
2022/05/16 09:48:22;;;;;;;3.50;1.90;;;;;;;22.35;32.43;101352.45;105121;1283;57423;-78
2022/05/16 09:51:04;;;;;;;5.50;2.20;;;;;;;22.47;31.94;101349.11;104989;1285;71663;-79
2022/05/16 09:53:45;;;;;;;3.50;1.50;;;;;;;22.49;32.31;101346.11;105028;1282;70832;-78
2022/05/16 09:56:35;;;;;;;5.50;1.80;;;;;;;22.52;32.10;101345.20;104831;1285;61048;-78
2022/05/16 09:59:05;;;;;;;4.80;1.70;;;;;;;22.43;32.61;101348.70;105014;1282;74136;-79
2022/05/16 10:01:51;;;;;;;3.50;1.70;;;;;;;22.37;33.08;101340.10;105033;1282;61174;-79
2022/05/16 10:04:44;;;;;;;5.40;2.10;;;;;;;22.64;32.76;101336.88;104941;1282;57630;-77
2022/05/16 10:07:14;;;;;;;5.60;1.90;;;;;;;22.75;32.55;101334.27;105091;1282;63151;-77
2022/05/16 10:09:53;;;;;;;6.30;2.10;;;;;;;22.78;32.54;101331.08;104998;1282;62851;-76
2022/05/16 10:12:27;;;;;;;5.30;1.90;;;;;;;22.80;32.42;101331.97;104971;1282;69568;-78
2022/05/16 10:14:56;;;;;;;5.20;1.80;;;;;;;22.65;31.82;101325.27;105051;1282;73332;-79
2022/05/16 10:17:36;;;;;;;2.80;1.60;;;;;;;22.61;31.95;101322.69;104936;1282;59368;-77
2022/05/16 10:20:20;;;;;;;7.10;2.00;;;;;;;22.41;32.43;101319.67;104889;1285;59127;-78
2022/05/16 10:22:59;;;;;;;4.70;1.80;;;;;;;23.16;31.89;101319.28;105034;1282;73793;-76
2022/05/16 10:25:46;;;;;;;6.90;2.30;;;;;;;23.44;32.00;101315.04;104950;1282;72059;-76
2022/05/16 10:28:26;;;;;;;4.90;2.30;;;;;;;23.70;31.95;101311.11;104894;1285;59967;-80
2022/05/16 10:33:50;;;;;;;8.70;2.10;;;;;;;24.35;31.67;101306.30;104894;1282;61944;-80
2022/05/16 10:36:30;;;;;;;3.80;1.80;;;;;;;24.70;31.05;101300.45;105080;1282;61774;-77
2022/05/16 10:39:17;;;;;;;4.70;2.00;;;;;;;24.80;30.30;101299.17;104817;1285;63014;-77
2022/05/16 10:42:05;;;;;;;5.10;2.00;;;;;;;25.15;30.26;101297.56;105128;1282;71863;-78
2022/05/16 10:44:52;;;;;;;8.00;2.10;;;;;;;25.09;29.51;101300.59;105132;1282;68585;-77
2022/05/16 10:47:31;;;;;;;4.10;1.90;;;;;;;24.85;29.57;101294.95;105199;1282;63213;-79
2022/05/16 10:50:21;;;;;;;6.70;2.00;;;;;;;25.10;30.12;101290.79;105325;1282;61693;-78
2022/05/16 10:53:04;;;;;;;5.80;2.20;;;;;;;25.72;28.49;101290.57;105337;1282;60967;-78
2022/05/16 10:55:51;;;;;;;6.80;2.30;;;;;;;25.85;28.08;101287.39;105453;1282;74251;-77
2022/05/16 10:59:17;;;;;;;5.50;2.30;;;;;;;26.11;28.23;101277.91;105347;1282;63683;-79
2022/05/16 11:02:18;;;;;;;6.00;2.30;;;;;;;26.75;28.00;101275.33;105504;1282;71134;-78
2022/05/16 11:05:24;;;;;;;5.40;2.10;;;;;;;26.80;27.24;101269.48;105705;1282;63296;-79
2022/05/16 11:08:09;;;;;;;6.40;1.90;;;;;;;26.83;26.55;101267.74;105478;1282;58825;-77
2022/05/16 11:11:08;;;;;;;5.50;2.00;;;;;;;27.02;26.34;101259.20;105622;1282;60707;-79
2022/05/16 11:13:55;;;;;;;6.20;2.30;;;;;;;26.95;26.45;101256.59;105604;1282;72767;-78
2022/05/16 11:16:33;;;;;;;2.70;1.70;;;;;;;27.39;26.33;101256.47;105435;1282;61650;-79
2022/05/16 11:19:22;;;;;;;4.50;2.10;;;;;;;28.00;25.03;101256.16;105618;1282;59490;-79
2022/05/16 11:22:35;;;;;;;5.70;2.00;;;;;;;27.12;26.19;101247.91;105409;1282;64844;-80
2022/05/16 11:25:21;;;;;;;6.10;2.40;;;;;;;26.69;26.64;101247.19;105431;1282;57683;-77
2022/05/16 11:28:33;;;;;;;7.80;2.60;;;;;;;26.44;26.83;101245.42;105182;1282;60782;-77
2022/05/16 11:31:12;;;;;;;5.40;2.60;;;;;;;27.05;26.57;101241.83;104980;1282;72007;-77
2022/05/16 11:33:52;;;;;;;6.60;2.10;;;;;;;27.04;26.57;101242.80;104857;1283;71492;-77
2022/05/16 11:37:00;;;;;;;7.60;2.40;;;;;;;26.86;27.09;101237.02;104934;1282;70924;-80
2022/05/16 11:39:47;;;;;;;11.40;3.50;;;;;;;27.00;27.30;101235.02;104735;1285;63357;-78
2022/05/16 11:42:54;;;;;;;6.90;2.30;;;;;;;27.39;27.30;101230.00;105061;1282;60940;-78
2022/05/16 11:45:57;;;;;;;6.40;2.10;;;;;;;27.13;26.81;101232.05;105095;1282;57959;-80
2022/05/16 11:48:54;;;;;;;3.70;2.10;;;;;;;27.18;26.73;101234.04;105066;1282;73852;-78
2022/05/16 11:53:00;;;;;;;5.00;2.10;;;;;;;26.86;27.37;101232.78;105114;1282;71506;-79
2022/05/16 12:01:29;;;;;;;7.10;2.20;;;;;;;28.21;25.72;101224.65;105111;1282;60519;-77
2022/05/16 12:04:11;;;;;;;3.80;1.90;;;;;;;28.28;25.28;101226.23;105212;1282;57608;-78
2022/05/16 12:06:50;;;;;;;6.40;2.10;;;;;;;28.31;25.13;101223.40;105423;1282;73022;-78
2022/05/16 12:09:31;;;;;;;4.80;2.00;;;;;;;28.47;24.99;101220.64;105682;1282;61490;-78
2022/05/16 12:12:12;;;;;;;6.00;2.00;;;;;;;28.68;24.81;101215.76;105969;1282;71394;-78
2022/05/16 12:14:42;;;;;;;4.20;1.80;;;;;;;29.60;24.28;101216.36;105760;1283;63844;-78
2022/05/16 12:17:13;;;;;;;3.40;1.70;;;;;;;29.68;23.48;101217.23;105652;1282;62022;-79
2022/05/16 12:19:48;;;;;;;5.60;2.30;;;;;;;28.51;24.53;101213.02;105677;1282;59092;-77
2022/05/16 12:22:33;;;;;;;5.20;2.00;;;;;;;27.65;25.49;101204.63;105794;1282;62380;-77
2022/05/16 12:25:28;;;;;;;4.50;1.90;;;;;;;28.45;24.76;101210.13;105446;1282;71782;-77
2022/05/16 12:28:13;;;;;;;4.40;2.30;;;;;;;28.44;25.13;101204.40;105489;1282;68899;-80
2022/05/16 12:30:59;;;;;;;4.70;2.10;;;;;;;27.96;25.31;101200.45;105399;1282;73340;-79
2022/05/16 12:33:40;;;;;;;5.90;2.10;;;;;;;26.90;26.59;101197.05;105523;1282;59061;-77
2022/05/16 12:36:19;;;;;;;5.00;2.20;;;;;;;27.31;26.62;101192.27;105356;1282;60649;-78
2022/05/16 12:38:58;;;;;;;4.90;1.90;;;;;;;27.85;25.47;101191.54;105207;1283;75329;-78
2022/05/16 12:42:03;;;;;;;5.10;2.20;;;;;;;27.74;25.52;101194.45;105296;1282;71529;-77
2022/05/16 12:44:57;;;;;;;4.70;2.10;;;;;;;27.52;25.88;101189.83;105373;1282;67900;-79
2022/05/16 12:47:40;;;;;;;4.10;2.20;;;;;;;27.13;26.81;101188.39;105449;1282;74591;-76
2022/05/16 12:50:24;;;;;;;5.20;2.00;;;;;;;28.08;25.92;101185.28;105459;1285;59147;-80
2022/05/16 12:53:18;;;;;;;4.70;1.90;;;;;;;28.81;25.01;101189.18;105510;1282;59194;-79
2022/05/16 12:56:21;;;;;;;5.20;2.00;;;;;;;29.11;24.18;101191.50;105573;1282;72032;-79
2022/05/16 12:59:11;;;;;;;4.40;2.20;;;;;;;29.35;24.42;101183.52;105656;1282;72256;-78
2022/05/16 13:02:02;;;;;;;3.20;1.90;;;;;;;29.59;23.84;101184.34;105785;1282;60182;-78
2022/05/16 13:05:05;;;;;;;5.40;2.20;;;;;;;30.20;22.87;101176.82;105570;1282;73048;-80
2022/05/16 13:08:20;;;;;;;5.20;2.10;;;;;;;29.89;22.83;101171.39;105810;1282;61098;-78
2022/05/16 13:11:43;;;;;;;4.60;1.90;;;;;;;29.58;23.44;101174.59;106408;1282;60400;-81
2022/05/16 13:14:24;;;;;;;4.10;2.00;;;;;;;29.12;24.03;101167.52;106367;1282;74714;-84
2022/05/16 13:17:02;;;;;;;5.70;1.90;;;;;;;30.65;22.57;101163.06;106782;1282;61613;-79
2022/05/16 13:19:35;;;;;;;4.50;2.10;;;;;;;30.96;21.60;101157.84;106774;1282;60280;-81
2022/05/16 13:22:19;;;;;;;4.20;2.00;;;;;;;30.92;21.33;101158.41;106877;1282;73412;-80
2022/05/16 13:25:03;;;;;;;5.60;2.10;;;;;;;30.91;21.80;101154.61;106827;1282;59810;-80
2022/05/16 13:30:26;;;;;;;3.80;1.80;;;;;;;31.24;21.79;101144.30;106799;1282;73971;-81
2022/05/16 13:32:57;;;;;;;5.30;1.80;;;;;;;31.64;20.24;101142.20;106859;1282;71637;-81
2022/05/16 13:35:39;;;;;;;4.20;2.10;;;;;;;30.55;21.90;101142.45;107011;1282;70357;-81
2022/05/16 13:38:08;;;;;;;;;;;;;;;31.00;22.04;101140.27;106865;1282;73912;-81
2022/05/16 13:40:42;;;;;;;4.90;1.90;;;;;;;30.53;22.39;101142.71;106728;1282;61516;-80
2022/05/16 13:43:23;;;;;;;4.40;1.90;;;;;;;30.33;22.50;101141.53;106831;1282;59250;-79
2022/05/16 13:46:27;;;;;;;5.90;2.40;;;;;;;30.12;22.18;101132.58;106866;1282;73478;-81
2022/05/16 13:49:13;;;;;;;6.20;2.00;;;;;;;29.90;22.53;101125.80;106928;1282;71575;-80
2022/05/16 13:51:54;;;;;;;4.30;1.90;;;;;;;29.58;23.10;101128.71;106821;1282;70518;-83
2022/05/16 13:54:31;;;;;;;5.50;2.20;;;;;;;30.49;22.35;101125.33;107058;1275;74104;-78
2022/05/16 14:01:24;;;;;;;5.40;2.00;;;;;;;32.60;20.31;101125.11;105068;1272;58246;31
2022/05/16 14:03:59;;;;;;;5.20;2.10;;;;;;;32.48;20.19;101121.38;107067;1276;64479;-82
2022/05/16 14:06:38;;;;;;;3.70;1.60;;;;;;;32.14;20.03;101122.64;107193;1279;61432;-79
2022/05/16 14:09:24;;;;;;;5.40;1.80;;;;;;;32.00;20.54;101110.88;107117;1272;70035;-83
2022/05/16 14:11:56;;;;;;;5.50;2.10;;;;;;;31.59;20.81;101109.14;107072;1279;63053;-80
2022/05/16 14:14:29;;;;;;;5.40;2.20;;;;;;;30.95;21.75;101108.05;107065;1279;60733;-81
2022/05/16 14:17:02;;;;;;;7.30;2.10;;;;;;;31.32;21.49;101108.98;107041;1279;61402;-81
2022/05/16 14:19:53;;;;;;;4.90;1.70;;;;;;;31.24;20.49;101106.05;107263;1269;62285;31
2022/05/16 14:22:42;;;;;;;5.10;1.90;;;;;;;32.16;19.73;101103.61;105665;1282;61585;-77
2022/05/16 14:25:40;;;;;;;3.40;1.90;;;;;;;32.70;19.76;101101.75;105173;1282;69973;-77
2022/05/16 14:28:31;;;;;;;3.00;1.60;;;;;;;31.88;20.07;101100.49;104814;1282;63187;-77
2022/05/16 14:31:27;;;;;;;3.60;1.60;;;;;;;31.95;19.82;101093.58;105135;1282;58811;-78
2022/05/16 14:34:02;;;;;;;3.50;1.70;;;;;;;30.82;21.35;101089.63;105032;1282;61057;-77
2022/05/16 14:36:39;;;;;;;6.40;2.00;;;;;;;32.13;20.29;101089.92;104925;1282;72992;-78
2022/05/16 14:39:34;;;;;;;4.00;2.00;;;;;;;31.62;20.87;101092.61;105119;1282;72987;-78
2022/05/16 14:42:23;;;;;;;4.10;1.70;;;;;;;31.79;20.60;101086.56;104894;1285;60016;-78
2022/05/16 14:45:14;;;;;;;5.90;2.20;;;;;;;32.34;20.07;101085.50;105040;1282;63434;-77
2022/05/16 14:48:09;;;;;;;5.30;2.20;;;;;;;32.58;19.95;101080.27;106185;1282;59179;-79
2022/05/16 14:50:47;;;;;;;6.20;1.90;;;;;;;32.36;19.94;101082.16;105733;1282;60723;-80
2022/05/16 14:53:18;;;;;;;5.20;2.30;;;;;;;32.41;19.88;101078.16;105415;1282;62237;-77
2022/05/16 14:55:57;;;;;;;5.40;2.10;;;;;;;32.80;19.81;101079.46;106022;1282;62064;-78
2022/05/16 14:58:59;;;;;;;6.30;2.30;;;;;;;32.46;19.41;101077.44;107132;1282;59397;-82
2022/05/16 15:05:21;;;;;;;3.60;1.90;;;;;;;31.34;20.74;101072.71;104646;1286;59145;-80
2022/05/16 15:08:02;;;;;;;;;;;;;;;;;;;;;
2022/05/16 15:10:49;;;;;;;4.70;1.70;;;;;;;31.21;20.87;101077.04;106009;1281;62387;-81
2022/05/16 15:13:19;;;;;;;5.80;1.90;;;;;;;30.95;20.71;101072.52;106063;1272;61100;-78
2022/05/16 15:15:48;;;;;;;4.30;1.90;;;;;;;31.15;20.77;101066.84;105033;1282;70816;-79
2022/05/16 15:18:18;;;;;;;6.10;1.80;;;;;;;30.99;20.86;101068.45;105431;1282;73677;-79
2022/05/16 15:20:49;;;;;;;6.00;1.90;;;;;;;31.56;20.42;101066.19;106221;1281;61428;-80
2022/05/16 15:23:21;;;;;;;6.40;2.00;;;;;;;31.35;20.50;101064.26;106411;1281;60533;-77
2022/05/16 15:25:52;;;;;;;5.00;2.00;;;;;;;31.19;20.66;101064.50;105046;1283;64042;-79
2022/05/16 15:28:21;;;;;;;4.40;1.70;;;;;;;31.59;20.25;101057.83;104877;1282;61049;-78
2022/05/16 15:30:50;;;;;;;6.10;2.00;;;;;;;31.15;20.42;101065.09;104903;1282;70681;-76
2022/05/16 15:33:20;;;;;;;5.10;1.80;;;;;;;30.77;21.21;101061.29;105006;1280;74947;-77
2022/05/16 15:35:50;;;;;;;5.00;1.70;;;;;;;30.98;20.83;101068.02;105129;1282;61540;-78
2022/05/16 15:38:22;;;;;;;4.70;1.70;;;;;;;31.75;19.64;101072.18;104944;1282;61162;-75
2022/05/16 15:40:52;;;;;;;5.30;1.80;;;;;;;31.86;19.37;101073.28;104954;1282;74167;-77
2022/05/16 15:43:22;;;;;;;3.80;1.80;;;;;;;31.36;19.74;101063.42;105194;1282;72447;-75
2022/05/16 15:45:51;;;;;;;5.80;1.80;;;;;;;31.07;20.24;101061.73;105205;1282;70614;-77
2022/05/16 15:48:21;;;;;;;6.60;1.70;;;;;;;31.26;20.18;101061.81;104904;1283;73945;-76
2022/05/16 15:50:51;;;;;;;4.20;1.50;;;;;;;31.22;20.17;101061.02;105156;1282;58931;-78
2022/05/16 15:53:22;;;;;;;6.20;1.70;;;;;;;29.93;21.70;101059.27;105049;1282;62216;-79
2022/05/16 15:55:51;;;;;;;6.10;1.80;;;;;;;30.46;21.12;101054.95;105117;1282;74310;-76
2022/05/16 15:58:20;;;;;;;3.90;1.90;;;;;;;30.82;20.75;101056.35;105466;1282;71758;-77
2022/05/16 16:00:50;;;;;;;8.00;2.00;;;;;;;30.59;20.76;101056.45;105096;1282;60521;-77
2022/05/16 16:09:17;;;;;;;7.10;2.30;;;;;;;29.89;21.81;101053.85;105406;1282;59500;-79
2022/05/16 16:11:47;;;;;;;5.90;2.10;;;;;;;30.32;21.57;101052.45;105626;1282;62729;-78
2022/05/16 16:14:21;;;;;;;4.70;2.10;;;;;;;30.47;21.50;101050.84;105444;1282;71591;-77
2022/05/16 16:16:51;;;;;;;5.10;2.20;;;;;;;30.33;21.68;101048.77;106671;1273;71054;-78
2022/05/16 16:19:27;;;;;;;5.50;2.00;;;;;;;30.29;21.75;101047.58;106446;1279;73791;-79
2022/05/16 16:21:57;;;;;;;5.20;2.40;;;;;;;30.09;21.86;101048.84;106483;1279;57752;-78
2022/05/16 16:25:34;;;;;;;6.20;2.20;;;;;;;29.83;22.29;101045.33;106611;1278;59134;-78
2022/05/16 16:28:06;;;;;;;5.20;2.00;;;;;;;29.93;22.19;101047.34;106725;1279;62995;-81
2022/05/16 16:30:38;;;;;;;3.90;2.00;;;;;;;29.64;22.66;101047.54;106610;1281;61042;-79
2022/05/16 16:33:11;;;;;;;4.20;2.00;;;;;;;29.31;23.29;101049.11;106785;1282;59354;-81
2022/05/16 16:35:41;;;;;;;3.70;1.80;;;;;;;29.22;23.58;101050.14;106719;1282;73235;-78
2022/05/16 16:38:15;;;;;;;;;;;;;;;28.74;24.31;101051.17;106608;1282;61058;-76
2022/05/16 16:40:47;;;;;;;6.60;2.40;;;;;;;28.52;24.51;101050.39;106786;1282;60993;-79
2022/05/16 16:43:37;;;;;;;5.30;1.90;;;;;;;28.65;24.39;101050.54;106370;1282;63858;-79
2022/05/16 16:46:15;;;;;;;4.90;1.90;;;;;;;28.67;24.54;101052.00;105875;1280;61012;-77
2022/05/16 16:48:44;;;;;;;7.30;2.40;;;;;;;28.37;25.29;101051.92;105988;1279;70806;-78
2022/05/16 16:57:27;;;;;;;4.40;2.00;;;;;;;28.18;25.68;101055.95;106121;1282;63012;-77
2022/05/16 16:59:50;;;;;;;5.80;2.30;;;;;;;27.38;27.26;101058.10;106815;1282;72954;-79
2022/05/16 17:02:24;;;;;;;7.20;2.10;;;;;;;26.77;28.09;101057.06;106166;1282;71459;-79
2022/05/16 17:04:59;;;;;;;8.00;2.50;;;;;;;26.39;28.30;101058.12;106226;1282;69840;-79
2022/05/16 17:07:32;;;;;;;5.70;2.20;;;;;;;26.33;28.73;101055.80;106195;1282;72266;-78
2022/05/16 17:10:07;;;;;;;5.90;2.40;;;;;;;25.94;29.36;101057.38;106122;1280;58913;-79
2022/05/16 17:12:37;;;;;;;5.90;2.20;;;;;;;25.65;29.50;101059.52;106223;1282;59094;-79
2022/05/16 17:15:07;;;;;;;6.80;3.30;;;;;;;25.23;30.83;101056.60;105308;1279;62378;-78
2022/05/16 17:17:36;;;;;;;6.90;3.20;;;;;;;24.86;32.47;101058.90;105444;1282;61847;-77
2022/05/16 17:20:07;;;;;;;9.10;3.30;;;;;;;24.44;33.60;101064.17;105096;1282;69930;-81
2022/05/16 17:22:36;;;;;;;9.60;3.00;;;;;;;23.95;36.17;101063.05;105384;1282;73758;-79
2022/05/16 17:25:09;;;;;;;6.60;2.80;;;;;;;23.24;39.23;101061.41;105562;1282;62384;-79
2022/05/16 17:27:41;;;;;;;8.00;3.20;;;;;;;22.71;41.53;101057.81;105395;1282;60861;-78
2022/05/16 17:30:11;;;;;;;6.30;2.90;;;;;;;22.24;43.33;101060.41;105231;1282;72801;-77
2022/05/16 17:32:40;;;;;;;12.50;2.80;;;;;;;22.12;43.66;101062.75;105297;1281;62691;-80
2022/05/16 17:35:09;;;;;;;11.90;3.30;;;;;;;21.89;44.37;101065.64;105936;1282;59369;-78
2022/05/16 17:37:39;;;;;;;11.70;2.90;;;;;;;21.72;44.25;101062.42;105481;1282;73353;-77